地図

経路データ

SID SEASON NUMBER BASIN SUBBASIN NAME ISO_TIME NATURE LAT LON WMO_WIND WMO_PRES WMO_AGENCY TRACK_TYPE DIST2LAND LANDFALL IFLAG USA_AGENCY USA_ATCF_ID USA_LAT USA_LON USA_RECORD USA_STATUS USA_WIND USA_PRES USA_SSHS USA_R34_NE USA_R34_SE USA_R34_SW USA_R34_NW USA_R50_NE USA_R50_SE USA_R50_SW USA_R50_NW USA_R64_NE USA_R64_SE USA_R64_SW USA_R64_NW USA_POCI USA_ROCI USA_RMW USA_EYE TOKYO_LAT TOKYO_LON TOKYO_GRADE TOKYO_WIND TOKYO_PRES TOKYO_R50_DIR TOKYO_R50_LONG TOKYO_R50_SHORT TOKYO_R30_DIR TOKYO_R30_LONG TOKYO_R30_SHORT TOKYO_LAND CMA_LAT CMA_LON CMA_CAT CMA_WIND CMA_PRES HKO_LAT HKO_LON HKO_CAT HKO_WIND HKO_PRES NEWDELHI_LAT NEWDELHI_LON NEWDELHI_GRADE NEWDELHI_WIND NEWDELHI_PRES NEWDELHI_CI NEWDELHI_DP NEWDELHI_POCI REUNION_LAT REUNION_LON REUNION_TYPE REUNION_WIND REUNION_PRES REUNION_TNUM REUNION_CI REUNION_RMW REUNION_R34_NE REUNION_R34_SE REUNION_R34_SW REUNION_R34_NW REUNION_R50_NE REUNION_R50_SE REUNION_R50_SW REUNION_R50_NW REUNION_R64_NE REUNION_R64_SE REUNION_R64_SW REUNION_R64_NW BOM_LAT BOM_LON BOM_TYPE BOM_WIND BOM_PRES BOM_TNUM BOM_CI BOM_RMW BOM_R34_NE BOM_R34_SE BOM_R34_SW BOM_R34_NW BOM_R50_NE BOM_R50_SE BOM_R50_SW BOM_R50_NW BOM_R64_NE BOM_R64_SE BOM_R64_SW BOM_R64_NW BOM_ROCI BOM_POCI BOM_EYE BOM_POS_METHOD BOM_PRES_METHOD NADI_LAT NADI_LON NADI_CAT NADI_WIND NADI_PRES WELLINGTON_LAT WELLINGTON_LON WELLINGTON_WIND WELLINGTON_PRES DS824_LAT DS824_LON DS824_STAGE DS824_WIND DS824_PRES TD9636_LAT TD9636_LON TD9636_STAGE TD9636_WIND TD9636_PRES TD9635_LAT TD9635_LON TD9635_WIND TD9635_PRES TD9635_ROCI NEUMANN_LAT NEUMANN_LON NEUMANN_CLASS NEUMANN_WIND NEUMANN_PRES MLC_LAT MLC_LON MLC_CLASS MLC_WIND MLC_PRES USA_GUST BOM_GUST BOM_GUST_PER REUNION_GUST REUNION_GUST_PER USA_SEAHGT USA_SEARAD_NE USA_SEARAD_SE USA_SEARAD_SW USA_SEARAD_NW STORM_SPEED STORM_DIR
1976278N15321 1976 123 NA NA NOT_NAMED 1976-10-03 12:00:00 TS 15.0000 -39.0000 20 hurdat_atl main 1803 1745 O_____________ hurdat_atl AL191976 15.0000 -39.0000 TD 20 -1 18 286
1976278N15321 1976 123 NA NA NOT_NAMED 1976-10-03 15:00:00 TS 15.2508 -39.9096 main 1753 1701 P_____________ AL191976 15.2508 -39.9096 TD 22 -1 18 286
1976278N15321 1976 123 NA NA NOT_NAMED 1976-10-03 18:00:00 TS 15.5000 -40.8000 25 hurdat_atl main 1701 1660 O_____________ hurdat_atl AL191976 15.5000 -40.8000 TD 25 -1 18 286
1976278N15321 1976 123 NA NA NOT_NAMED 1976-10-03 21:00:00 TS 15.7496 -41.6577 main 1653 1625 P_____________ AL191976 15.7496 -41.6577 TD 25 -1 17 287
1976278N15321 1976 123 NA NA NOT_NAMED 1976-10-04 00:00:00 TS 16.0000 -42.5000 25 hurdat_atl main 1625 1593 O_____________ hurdat_atl AL191976 16.0000 -42.5000 TD 25 -1 17 287
1976278N15321 1976 123 NA NA NOT_NAMED 1976-10-04 03:00:00 TS 16.2496 -43.3428 main 1593 1562 P_____________ AL191976 16.2496 -43.3428 TD 25 -1 17 287
1976278N15321 1976 123 NA NA NOT_NAMED 1976-10-04 06:00:00 TS 16.5000 -44.2000 25 hurdat_atl main 1562 1531 O_____________ hurdat_atl AL191976 16.5000 -44.2000 TD 25 -1 18 287
1976278N15321 1976 123 NA NA NOT_NAMED 1976-10-04 09:00:00 TS 16.7652 -45.1373 main 1534 1504 P_____________ AL191976 16.7652 -45.1373 TD 27 -1 18 286
1976278N15321 1976 123 NA NA NOT_NAMED 1976-10-04 12:00:00 TS 17.0000 -46.0000 30 hurdat_atl main 1504 1484 O_____________ hurdat_atl AL191976 17.0000 -46.0000 TD 30 -1 15 285
1976278N15321 1976 123 NA NA NOT_NAMED 1976-10-04 15:00:00 TS 17.1568 -46.6380 main 1493 1474 P_____________ AL191976 17.1568 -46.6380 TD 30 -1 12 285
1976278N15321 1976 123 NA NA NOT_NAMED 1976-10-04 18:00:00 TS 17.3000 -47.2000 30 hurdat_atl main 1475 1464 O_____________ hurdat_atl AL191976 17.3000 -47.2000 TD 30 -1 12 286
1976278N15321 1976 123 NA NA NOT_NAMED 1976-10-04 21:00:00 TS 17.4924 -47.8500 main 1466 1458 P_____________ AL191976 17.4924 -47.8500 TD 30 -1 13 288
1976278N15321 1976 123 NA NA NOT_NAMED 1976-10-05 00:00:00 TS 17.7000 -48.5000 30 hurdat_atl main 1459 1451 O_____________ hurdat_atl AL191976 17.7000 -48.5000 TD 30 -1 13 289
1976278N15321 1976 123 NA NA NOT_NAMED 1976-10-05 03:00:00 TS 17.8997 -49.1002 main 1453 1444 P_____________ AL191976 17.8997 -49.1002 TD 30 -1 12 289
1976278N15321 1976 123 NA NA NOT_NAMED 1976-10-05 06:00:00 TS 18.1000 -49.7000 30 hurdat_atl main 1450 1431 O_____________ hurdat_atl AL191976 18.1000 -49.7000 TD 30 -1 13 292
1976278N15321 1976 123 NA NA NOT_NAMED 1976-10-05 09:00:00 TS 18.3826 -50.3643 main 1429 1385 P_____________ AL191976 18.3826 -50.3643 TD 30 -1 13 288
1976278N15321 1976 123 NA NA NOT_NAMED 1976-10-05 12:00:00 TS 18.5000 -51.0000 30 hurdat_atl main 1385 1329 O_____________ hurdat_atl AL191976 18.5000 -51.0000 TD 30 -1 11 263
1976278N15321 1976 123 NA NA NOT_NAMED 1976-10-05 15:00:00 TS 18.2397 -51.5230 main 1323 1253 P_____________ AL191976 18.2397 -51.5230 TD 27 -1 12 234
1976278N15321 1976 123 NA NA NOT_NAMED 1976-10-05 18:00:00 TS 17.8000 -52.0000 25 hurdat_atl main 1253 1192 O_____________ hurdat_atl AL191976 17.8000 -52.0000 TD 25 -1 12 226
1976278N15321 1976 123 NA NA NOT_NAMED 1976-10-05 21:00:00 TS 17.4066 -52.4244 main 1192 1115 P_____________ AL191976 17.4066 -52.4244 TD 25 -1 12 230
1976278N15321 1976 123 NA NA NOT_NAMED 1976-10-06 00:00:00 TS 17.0000 -53.0000 25 hurdat_atl main 1115 1012 O_____________ hurdat_atl AL191976 17.0000 -53.0000 TD 25 -1 17 240
1976278N15321 1976 123 NA NA NOT_NAMED 1976-10-06 03:00:00 TS 16.5929 -53.9253 main 1012 902 P_____________ AL191976 16.5929 -53.9253 TD 25 -1 21 247
1976278N15321 1976 123 NA NA NOT_NAMED 1976-10-06 06:00:00 TS 16.2000 -55.0000 25 hurdat_atl main 894 794 O_____________ hurdat_atl AL191976 16.2000 -55.0000 TD 25 -1 22 250
1976278N15321 1976 123 NA NA NOT_NAMED 1976-10-06 09:00:00 TS 15.8353 -56.0598 main 779 690 P_____________ AL191976 15.8353 -56.0598 TD 25 -1 21 250
1976278N15321 1976 123 NA NA NOT_NAMED 1976-10-06 12:00:00 TS 15.5000 -57.0000 25 hurdat_atl main 690 624 O_____________ hurdat_atl AL191976 15.5000 -57.0000 TD 25 -1 17 247
1976278N15321 1976 123 NA NA NOT_NAMED 1976-10-06 15:00:00 TS 15.1992 -57.6518 main 617 559 P_____________ AL191976 15.1992 -57.6518 TD 25 -1 13 243
1976278N15321 1976 123 NA NA NOT_NAMED 1976-10-06 18:00:00 TS 14.9000 -58.2000 25 hurdat_atl main 559 497 O_____________ hurdat_atl AL191976 14.9000 -58.2000 TD 25 -1 13 241
1976278N15321 1976 123 NA NA NOT_NAMED 1976-10-06 21:00:00 TS 14.5499 -58.8500 main 487 424 P_____________ AL191976 14.5499 -58.8500 TD 25 -1 14 241
1976278N15321 1976 123 NA NA NOT_NAMED 1976-10-07 00:00:00 TS 14.2000 -59.5000 25 hurdat_atl main 424 371 O_____________ hurdat_atl AL191976 14.2000 -59.5000 TD 25 -1 14 242
1976278N15321 1976 123 NA CS NOT_NAMED 1976-10-07 03:00:00 TS 13.8922 -60.0997 main 371 326 P_____________ AL191976 13.8922 -60.0997 TD 25 -1 13 243
1976278N15321 1976 123 NA CS NOT_NAMED 1976-10-07 06:00:00 TS 13.6000 -60.7000 25 hurdat_atl main 326 291 O_____________ hurdat_atl AL191976 13.6000 -60.7000 TD 25 -1 14 242
1976278N15321 1976 123 NA CS NOT_NAMED 1976-10-07 09:00:00 TS 13.2401 -61.3653 main 279 257 P_____________ AL191976 13.2401 -61.3653 TD 25 -1 14 245
1976278N15321 1976 123 NA CS NOT_NAMED 1976-10-07 12:00:00 TS 13.0000 -62.0000 25 hurdat_atl main 258 257 O_____________ hurdat_atl AL191976 13.0000 -62.0000 TD 25 -1 11 260
1976278N15321 1976 123 NA CS NOT_NAMED 1976-10-07 15:00:00 TS 13.0473 -62.5221 main 257 257 P_____________ AL191976 13.0473 -62.5221 TD 25 -1 10 282
1976278N15321 1976 123 NA CS NOT_NAMED 1976-10-07 18:00:00 TS 13.2000 -63.0000 25 hurdat_atl main 279 279 O_____________ hurdat_atl AL191976 13.2000 -63.0000 TD 25 -1 10 282
1976278N15321 1976 123 NA CS NOT_NAMED 1976-10-07 21:00:00 TS 13.2574 -63.5001 main 294 294 P_____________ AL191976 13.2574 -63.5001 TD 25 -1 10 276
1976278N15321 1976 123 NA CS NOT_NAMED 1976-10-08 00:00:00 TS 13.3000 -64.0000 25 hurdat_atl main 302 302 O_____________ hurdat_atl AL191976 13.3000 -64.0000 TD 25 -1 10 275
1976278N15321 1976 123 NA CS NOT_NAMED 1976-10-08 03:00:00 TS 13.3499 -64.5000 main 304 304 P_____________ AL191976 13.3499 -64.5000 TD 25 -1 10 276
1976278N15321 1976 123 NA CS NOT_NAMED 1976-10-08 06:00:00 TS 13.4000 -65.0000 25 hurdat_atl main 325 318 O_____________ hurdat_atl AL191976 13.4000 -65.0000 TD 25 -1 10 276
1976278N15321 1976 123 NA CS NOT_NAMED 1976-10-08 09:00:00 TS 13.4500 -65.5225 main 329 324 P_____________ AL191976 13.4500 -65.5225 TD 27 -1 10 276
1976278N15321 1976 123 NA CS NOT_NAMED 1976-10-08 12:00:00 TS 13.5000 -66.0000 30 hurdat_atl main 324 324 O_____________ hurdat_atl AL191976 13.5000 -66.0000 TD 30 -1 8 277
1976278N15321 1976 123 NA CS NOT_NAMED 1976-10-08 15:00:00 TS 13.5498 -66.3650 main 324 324 P_____________ AL191976 13.5498 -66.3650 TD 30 -1 7 278
1976278N15321 1976 123 NA CS NOT_NAMED 1976-10-08 18:00:00 TS 13.6000 -66.7000 30 hurdat_atl main 326 303 O_____________ hurdat_atl AL191976 13.6000 -66.7000 TD 30 -1 7 278
1976278N15321 1976 123 NA CS NOT_NAMED 1976-10-08 21:00:00 TS 13.6500 -67.1000 main 313 293 P_____________ AL191976 13.6500 -67.1000 TD 30 -1 8 277
1976278N15321 1976 123 NA CS NOT_NAMED 1976-10-09 00:00:00 TS 13.7000 -67.5000 30 hurdat_atl main 293 279 O_____________ hurdat_atl AL191976 13.7000 -67.5000 TD 30 -1 7 277
1976278N15321 1976 123 NA CS NOT_NAMED 1976-10-09 03:00:00 TS 13.7424 -67.8501 main 275 264 P_____________ AL191976 13.7424 -67.8501 TD 30 -1 7 278
1976278N15321 1976 123 NA CS NOT_NAMED 1976-10-09 06:00:00 TS 13.8000 -68.2000 30 hurdat_atl main 264 243 O_____________ hurdat_atl AL191976 13.8000 -68.2000 TD 30 -1 8 281
1976278N15321 1976 123 NA CS NOT_NAMED 1976-10-09 09:00:00 TS 13.8851 -68.6300 main 245 228 P_____________ AL191976 13.8851 -68.6300 TD 30 -1 8 284
1976278N15321 1976 123 NA CS NOT_NAMED 1976-10-09 12:00:00 TS 14.0000 -69.0000 30 hurdat_atl main 234 229 O_____________ hurdat_atl AL191976 14.0000 -69.0000 TD 30 -1 6 295
1976278N15321 1976 123 NA CS NOT_NAMED 1976-10-09 15:00:00 TS 14.1349 -69.1801 main 236 236 P_____________ AL191976 14.1349 -69.1801 TD 30 -1 4 316
1976278N15321 1976 123 NA CS NOT_NAMED 1976-10-09 18:00:00 TS 14.3000 -69.3000 30 hurdat_atl main 254 254 O_____________ hurdat_atl AL191976 14.3000 -69.3000 TD 30 -1 5 320
1976278N15321 1976 123 NA CS NOT_NAMED 1976-10-09 21:00:00 TS 14.4925 -69.4925 main 272 272 P_____________ AL191976 14.4925 -69.4925 TD 30 -1 6 316
1976278N15321 1976 123 NA CS NOT_NAMED 1976-10-10 00:00:00 TS 14.7000 -69.7000 30 hurdat_atl main 291 291 O_____________ hurdat_atl AL191976 14.7000 -69.7000 TD 30 -1 6 316
1976278N15321 1976 123 NA CS NOT_NAMED 1976-10-10 03:00:00 TS 14.9000 -69.9000 main 313 312 P_____________ AL191976 14.9000 -69.9000 TD 30 -1 6 316
1976278N15321 1976 123 NA CS NOT_NAMED 1976-10-10 06:00:00 TS 15.1000 -70.1000 30 hurdat_atl main 312 282 O_____________ hurdat_atl AL191976 15.1000 -70.1000 TD 30 -1 6 315
1976278N15321 1976 123 NA CS NOT_NAMED 1976-10-10 09:00:00 TS 15.3075 -70.3225 main 282 253 P_____________ AL191976 15.3075 -70.3225 TD 30 -1 6 316
1976278N15321 1976 123 NA CS NOT_NAMED 1976-10-10 12:00:00 TS 15.5000 -70.5000 30 hurdat_atl main 253 239 O_____________ hurdat_atl AL191976 15.5000 -70.5000 TD 30 -1 4 325
1976278N15321 1976 123 NA CS NOT_NAMED 1976-10-10 15:00:00 TS 15.6500 -70.5726 main 239 218 P_____________ AL191976 15.6500 -70.5726 TD 30 -1 3 343
1976278N15321 1976 123 NA CS NOT_NAMED 1976-10-10 18:00:00 TS 15.8000 -70.6000 30 hurdat_atl main 218 198 O_____________ hurdat_atl AL191976 15.8000 -70.6000 TD 30 -1 4 349
1976278N15321 1976 123 NA CS NOT_NAMED 1976-10-10 21:00:00 TS 15.9925 -70.6425 main 198 173 P_____________ AL191976 15.9925 -70.6425 TD 30 -1 4 347
1976278N15321 1976 123 NA CS NOT_NAMED 1976-10-11 00:00:00 TS 16.2000 -70.7000 30 hurdat_atl main 173 148 O_____________ hurdat_atl AL191976 16.2000 -70.7000 TD 30 -1 4 339
1976278N15321 1976 123 NA CS NOT_NAMED 1976-10-11 03:00:00 TS 16.4000 -70.8000 main 148 123 P_____________ AL191976 16.4000 -70.8000 TD 27 -1 4 334
1976278N15321 1976 123 NA CS NOT_NAMED 1976-10-11 06:00:00 TS 16.6000 -70.9000 25 hurdat_atl main 123 99 O_____________ hurdat_atl AL191976 16.6000 -70.9000 TD 25 -1 4 337
1976278N15321 1976 123 NA CS NOT_NAMED 1976-10-11 09:00:00 TS 16.7775 -70.9650 main 99 79 P_____________ AL191976 16.7775 -70.9650 TD 25 -1 4 347
1976278N15321 1976 123 NA CS NOT_NAMED 1976-10-11 12:00:00 TS 17.0000 -71.0000 25 hurdat_atl main 79 54 O_____________ hurdat_atl AL191976 17.0000 -71.0000 TD 25 -1 5 356
1976278N15321 1976 123 NA CS NOT_NAMED 1976-10-11 15:00:00 TS 17.3200 -71.0075 main 54 30 P_____________ AL191976 17.3200 -71.0075 TD 25 -1 7 0
1976278N15321 1976 123 NA CS NOT_NAMED 1976-10-11 18:00:00 TS 17.7000 -71.0000 25 hurdat_atl main 30 10 O_____________ hurdat_atl AL191976 17.7000 -71.0000 TD 25 -1 8 2
1976278N15321 1976 123 NA CS NOT_NAMED 1976-10-11 21:00:00 TS 18.1000 -71.0000 main 10 0 P_____________ AL191976 18.1000 -71.0000 TD 25 -1 8 1
1976278N15321 1976 123 NA NA NOT_NAMED 1976-10-12 00:00:00 TS 18.5000 -71.0000 25 hurdat_atl main 0 0 O_____________ hurdat_atl AL191976 18.5000 -71.0000 TD 25 -1 8 0
1976278N15321 1976 123 NA NA NOT_NAMED 1976-10-12 03:00:00 TS 18.8500 -71.0000 main 0 0 P_____________ AL191976 18.8500 -71.0000 TD 22 -1 7 0
1976278N15321 1976 123 NA NA NOT_NAMED 1976-10-12 06:00:00 TS 19.2000 -71.0000 hurdat_atl main 0 0 I_____________ hurdat_atl AL191976 19.2000 -71.0000 TD 20 -1 7 0
1976278N15321 1976 123 NA NA NOT_NAMED 1976-10-12 09:00:00 TS 19.5875 -71.0000 main 0 0 P_____________ AL191976 19.5875 -71.0000 TD 17 -1 8 1
1976278N15321 1976 123 NA NA NOT_NAMED 1976-10-12 12:00:00 TS 20.0000 -71.0000 15 hurdat_atl main 22 O_____________ hurdat_atl AL191976 20.0000 -71.0000 TD 15 -1 8 3

IBTrACS Databaseについて

本データベースは、米国NOAAが公開する1842年以降の世界の熱帯低気圧のベストトラックデータアーカイブInternational Best Track Archive for Climate Stewardship (IBTrACS)を、ウェブで閲覧しやすい形式に変換したものです。

最終更新日:2021-12-01